createdAt,value
2022-07-30T00:00:31.379Z,6.7
2022-07-30T00:05:34.179Z,7
2022-07-30T00:10:36.645Z,6.8
2022-07-30T00:15:39.068Z,6.2
2022-07-30T00:20:43.657Z,6.5
2022-07-30T00:25:50.207Z,7.7
2022-07-30T00:30:55.028Z,6.2
2022-07-30T00:35:58.842Z,6.6
2022-07-30T00:41:01.162Z,7.6
2022-07-30T00:46:03.549Z,6.1
2022-07-30T00:51:06.499Z,7.4
2022-07-30T00:56:09.378Z,6.1
2022-07-30T01:01:11.690Z,6.4
2022-07-30T01:06:14.658Z,5.5
2022-07-30T01:11:17.118Z,5.8
2022-07-30T01:16:19.847Z,6.2
2022-07-30T01:21:22.584Z,5.1
2022-07-30T01:26:25.349Z,5.6
2022-07-30T01:31:28.401Z,6.2
2022-07-30T01:36:31.111Z,6.2
2022-07-30T01:41:33.829Z,5.1
2022-07-30T01:46:36.359Z,5.5
2022-07-30T01:51:39.111Z,7
2022-07-30T01:56:41.852Z,8.6
2022-07-30T02:01:45.321Z,6.1
2022-07-30T02:06:47.774Z,6.5
2022-07-30T02:11:52.314Z,5.8
2022-07-30T02:16:54.766Z,5.7
2022-07-30T02:21:57.788Z,5.2
2022-07-30T02:27:02.350Z,5.6
2022-07-30T02:32:05.977Z,5
2022-07-30T02:37:08.479Z,4.5
2022-07-30T02:42:11.646Z,5.1
2022-07-30T02:47:14.331Z,5.6
2022-07-30T02:52:17.428Z,4.6
2022-07-30T02:57:20.027Z,5.9
2022-07-30T03:02:24.849Z,6.4
2022-07-30T03:07:23.667Z,5.5
2022-07-30T03:12:26.233Z,4.6
2022-07-30T03:17:28.949Z,6.2
2022-07-30T03:22:33.204Z,4.8
2022-07-30T03:27:36.043Z,5.3
2022-07-30T03:32:38.753Z,5.4
2022-07-30T03:37:44.855Z,5.3
2022-07-30T03:42:47.837Z,4.5
2022-07-30T03:47:50.358Z,5.1
2022-07-30T03:52:53.159Z,5.4
2022-07-30T03:57:55.722Z,7.3
2022-07-30T04:02:56.318Z,5.7
2022-07-30T04:07:58.809Z,5
2022-07-30T04:13:07.840Z,4.4
2022-07-30T04:18:12.089Z,5.4
2022-07-30T04:23:15.017Z,6.2
2022-07-30T04:28:17.518Z,5
2022-07-30T04:33:19.868Z,4.5
2022-07-30T04:38:22.582Z,5.6
2022-07-30T04:43:25.178Z,5.2
2022-07-30T04:48:27.470Z,4.4
2022-07-30T04:53:29.878Z,4.9
2022-07-30T04:58:32.649Z,6.1
2022-07-30T05:03:35.047Z,4.7
2022-07-30T05:08:37.877Z,5.3
2022-07-30T05:13:40.859Z,4.7
2022-07-30T05:18:48.831Z,5
2022-07-30T05:23:51.566Z,5.4
2022-07-30T05:28:55.308Z,4.7
2022-07-30T05:34:02.923Z,3.9
2022-07-30T05:39:05.974Z,5.7
2022-07-30T05:44:08.705Z,4.9
2022-07-30T05:49:11.029Z,5.3
2022-07-30T05:54:14.099Z,4.8
2022-07-30T05:59:16.641Z,5.4
2022-07-30T06:04:19.275Z,5.4
2022-07-30T06:09:22.478Z,4.8
2022-07-30T06:14:29.317Z,5.2
2022-07-30T06:19:32.484Z,6.1
2022-07-30T06:24:35.187Z,6.3
2022-07-30T06:29:38.477Z,5.7
2022-07-30T06:34:41.286Z,4.7
2022-07-30T06:39:57.240Z,4.8
2022-07-30T06:44:51.017Z,5.7
2022-07-30T06:49:53.706Z,7.2
2022-07-30T06:54:56.447Z,6.7
2022-07-30T06:59:58.839Z,4.4
2022-07-30T07:05:01.458Z,4.8
2022-07-30T07:10:03.691Z,6.2
2022-07-30T07:15:06.012Z,4.5
2022-07-30T07:20:08.405Z,5.5
2022-07-30T07:25:10.691Z,5.2
2022-07-30T07:30:13.034Z,4.9
2022-07-30T07:35:16.271Z,4.1
2022-07-30T07:40:18.633Z,5.3
2022-07-30T07:45:24.444Z,4.9
2022-07-30T07:50:26.985Z,5.6
2022-07-30T07:55:29.285Z,7.1
2022-07-30T08:00:34.687Z,4.8
2022-07-30T08:05:54.193Z,6
2022-07-30T08:10:44.989Z,6.3
2022-07-30T08:15:47.554Z,5.7
2022-07-30T08:20:50.049Z,7.8
2022-07-30T08:25:52.609Z,5.7
2022-07-30T08:30:55.999Z,4.9
2022-07-30T08:36:09.394Z,5.6
2022-07-30T08:41:12.418Z,5
2022-07-30T08:46:15.377Z,6.6
2022-07-30T08:51:18.643Z,5.6
2022-07-30T08:56:21.563Z,6.3
2022-07-30T09:01:25.757Z,8.5
2022-07-30T09:06:28.181Z,5.5
2022-07-30T09:11:31.790Z,9.6
2022-07-30T09:16:34.539Z,9.1
2022-07-30T09:21:36.910Z,6.7
2022-07-30T09:26:39.374Z,7
2022-07-30T09:31:43.556Z,6.3
2022-07-30T09:36:46.353Z,7.5
2022-07-30T09:41:49.120Z,7.5
2022-07-30T09:46:54.186Z,6.4
2022-07-30T09:51:57.434Z,8.5
2022-07-30T09:57:01.151Z,6.4
2022-07-30T10:02:10.070Z,7.5
2022-07-30T10:07:14.038Z,6.7
2022-07-30T10:12:17.886Z,8.3
2022-07-30T10:17:25.729Z,955.6
2022-07-30T10:22:33.571Z,1065.8
2022-07-30T10:27:35.862Z,1051.1
2022-07-30T10:32:40.329Z,1059
2022-07-30T10:37:42.142Z,1037.1
2022-07-30T10:42:46.934Z,1007.1
2022-07-30T10:47:49.818Z,511.3
2022-07-30T10:52:52.807Z,53.1
2022-07-30T10:57:56.645Z,42.9
2022-07-30T11:03:00.025Z,54.6
2022-07-30T11:08:07.697Z,64.9
2022-07-30T11:13:16.114Z,14
2022-07-30T11:14:39.244Z,10.1
2022-07-30T11:19:51.808Z,11
2022-07-30T11:24:43.496Z,6.7
2022-07-30T11:29:50.390Z,5.2
2022-07-30T11:34:57.911Z,6.4
2022-07-30T11:40:00.524Z,5.3
2022-07-30T11:45:04.134Z,5.1
2022-07-30T11:50:07.059Z,6.4
2022-07-30T11:55:10.027Z,4.5
2022-07-30T12:00:12.980Z,4.8
2022-07-30T12:05:15.637Z,6.5
2022-07-30T12:10:17.917Z,4.1
2022-07-30T12:15:20.668Z,22.2
2022-07-30T12:20:23.632Z,47.6
2022-07-30T12:25:24.569Z,59.8
2022-07-30T12:30:27.467Z,53.7
2022-07-30T12:35:30.220Z,41.6
2022-07-30T12:40:32.696Z,41.6
2022-07-30T12:45:52.247Z,76.9
2022-07-30T12:50:37.475Z,87.6
2022-07-30T12:55:40.931Z,61.6
2022-07-30T13:00:43.748Z,55
2022-07-30T13:05:46.295Z,61.2
2022-07-30T13:10:48.715Z,28.7
2022-07-30T13:15:54.185Z,26.6
2022-07-30T13:20:58.971Z,17.5
2022-07-30T13:26:01.595Z,5
2022-07-30T13:31:04.447Z,6.6
2022-07-30T13:36:06.797Z,7.5
2022-07-30T13:41:09.595Z,9.8
2022-07-30T13:46:14.387Z,7.5
2022-07-30T13:51:16.940Z,10.6
2022-07-30T13:56:19.574Z,6.3
2022-07-30T14:01:22.999Z,7.1
2022-07-30T14:06:25.717Z,5.8
2022-07-30T14:11:28.317Z,7.3
2022-07-30T14:16:46.295Z,4.9
2022-07-30T14:21:34.028Z,4.1
2022-07-30T14:26:36.755Z,4.1
2022-07-30T14:31:39.339Z,4.6
2022-07-30T14:36:41.702Z,3.4
2022-07-30T14:41:44.086Z,4.9
2022-07-30T14:46:51.398Z,5
2022-07-30T14:51:56.146Z,5.9
2022-07-30T14:56:59.073Z,4.2
2022-07-30T15:02:02.797Z,4.5
2022-07-30T15:07:12.029Z,2.2
2022-07-30T15:12:23.970Z,3.2
2022-07-30T15:17:20.007Z,2.9
2022-07-30T15:22:23.469Z,2.6
2022-07-30T15:27:33.564Z,3.7
2022-07-30T15:32:26.541Z,3.5
2022-07-30T15:37:31.506Z,4.1
2022-07-30T15:42:33.941Z,3
2022-07-30T15:47:36.213Z,4
2022-07-30T15:52:38.590Z,2.8
2022-07-30T15:57:40.975Z,4.4
2022-07-30T16:02:43.602Z,5.8
2022-07-30T16:07:46.312Z,2.5
2022-07-30T16:12:48.506Z,2.5
2022-07-30T16:17:50.836Z,1.6
2022-07-30T16:22:53.274Z,2.2
2022-07-30T16:27:56.156Z,1.7
2022-07-30T16:32:58.736Z,2.6
2022-07-30T16:38:01.609Z,2.9
2022-07-30T16:43:04.047Z,0.9
2022-07-30T16:48:06.481Z,1.5
2022-07-30T16:53:13.278Z,2.2
2022-07-30T16:58:16.914Z,1.7
2022-07-30T17:03:21.774Z,2.7
2022-07-30T17:08:25.370Z,2
2022-07-30T17:13:30.827Z,2.1
2022-07-30T17:18:33.168Z,0.7
2022-07-30T17:23:36.016Z,1.2
2022-07-30T17:28:38.582Z,0.7
2022-07-30T17:33:41.209Z,2.1
2022-07-30T17:38:43.926Z,1.1
2022-07-30T17:43:46.188Z,4.3
2022-07-30T17:48:48.490Z,7.2
2022-07-30T17:53:51.483Z,2.6
2022-07-30T17:58:53.955Z,1.2
2022-07-30T18:03:56.550Z,3.4
2022-07-30T18:08:59.031Z,2.2
2022-07-30T18:14:01.834Z,2.1
2022-07-30T18:19:04.439Z,1.9
2022-07-30T18:24:08.381Z,1.2
2022-07-30T18:29:16.059Z,2.1
2022-07-30T18:34:21.029Z,2.3
2022-07-30T18:39:23.953Z,3.6
2022-07-30T18:44:27.331Z,7.7
2022-07-30T18:49:36.449Z,3.5
2022-07-30T18:54:33.260Z,3.4
2022-07-30T18:59:35.518Z,2.3
2022-07-30T19:04:38.909Z,3.1
2022-07-30T19:09:41.685Z,1.2
2022-07-30T19:14:44.134Z,2.4
2022-07-30T19:19:47.166Z,2.8
2022-07-30T19:24:49.549Z,4.3
2022-07-30T19:29:52.264Z,2.9
2022-07-30T19:34:54.940Z,2.5
2022-07-30T19:39:58.511Z,2.8
2022-07-30T19:45:04.402Z,7.5
2022-07-30T19:50:05.981Z,3.6
2022-07-30T19:55:16.968Z,4.9
2022-07-30T20:00:24.718Z,4.6
2022-07-30T20:05:18.177Z,3.6
2022-07-30T20:10:20.389Z,2.4
2022-07-30T20:15:25.108Z,4.4
2022-07-30T20:20:31.826Z,2.6
2022-07-30T20:25:37.096Z,2.6
2022-07-30T20:30:41.494Z,4.1
2022-07-30T20:35:43.809Z,2.1
2022-07-30T20:40:47.924Z,2.7
2022-07-30T20:45:51.268Z,4.1
2022-07-30T20:50:54.052Z,3.7
2022-07-30T20:55:58.740Z,4
2022-07-30T21:01:04.708Z,4
2022-07-30T21:06:08.032Z,7
2022-07-30T21:11:14.484Z,2.5
2022-07-30T21:16:18.784Z,2.4
2022-07-30T21:21:28.756Z,2.7
2022-07-30T21:26:29.410Z,3.9
2022-07-30T21:31:58.006Z,2.5
2022-07-30T21:36:36.348Z,3
2022-07-30T21:41:41.661Z,2.3
2022-07-30T21:46:44.145Z,2.9
2022-07-30T21:51:49.411Z,4.9
2022-07-30T21:56:51.761Z,2.9
2022-07-30T23:18:50.080Z,5.1
2022-07-30T23:23:52.700Z,6.8
2022-07-30T23:28:55.206Z,4.9
2022-07-30T23:33:57.889Z,4.5
2022-07-30T23:39:01.629Z,5.4
2022-07-30T23:44:04.199Z,4.8
2022-07-30T23:49:07.335Z,8
2022-07-30T23:50:21.257Z,5.3
2022-07-30T23:55:23.711Z,4.9
